CST,Max TemperatureF,Mean TemperatureF,Min TemperatureF,Max Dew PointF,MeanDew PointF,Min DewpointF,Max Humidity, Mean Humidity, Min Humidity, Max Sea Level PressureIn, Mean Sea Level PressureIn, Min Sea Level PressureIn, Max VisibilityMiles, Mean VisibilityMiles, Min VisibilityMiles, Max Wind SpeedMPH, Mean Wind SpeedMPH, Max Gust SpeedMPH,PrecipitationIn, CloudCover, Events, WindDirDegrees
2011-11-1,72,53,33,43,36,29,82,57,31,30.18,30.13,30.08,10,10,10,18,11,25,0.00,0,,180
2011-11-2,71,60,48,45,40,34,66,52,37,30.14,30.06,29.94,10,10,10,28,13,33,0.00,0,,188
2011-11-3,53,50,47,48,46,42,100,83,66,30.13,29.90,29.79,10,5,1,30,15,35,0.93,8,Rain,54
2011-11-4,56,45,34,43,37,31,92,74,55,30.31,30.24,30.14,10,10,10,20,10,26,0.00,1,,55
2011-11-5,59,45,31,42,37,30,89,70,51,30.27,30.18,30.07,10,10,10,17,10,22,0.00,0,,141
2011-11-6,59,53,47,45,43,40,80,69,57,30.16,30.11,30.08,10,10,9,28,16,37,T,5,,183
2011-11-7,59,56,53,57,54,46,100,81,62,30.23,30.17,30.08,10,6,2,14,7,18,0.38,8,Rain,172
2011-11-8,67,62,56,59,56,52,97,85,73,30.06,29.94,29.81,10,9,2,29,13,37,0.25,6,Rain,175
2011-11-9,61,51,40,59,46,31,90,76,62,30.12,29.84,29.64,10,10,5,30,17,41,0.07,6,Rain,233
2011-11-10,43,39,34,30,27,25,76,65,53,30.14,30.12,30.10,10,10,10,23,12,29,0.00,3,,282
2011-11-11,51,40,28,37,30,24,92,67,42,30.12,29.97,29.83,10,10,10,23,11,29,0.00,0,,200
2011-11-12,62,53,43,47,38,32,70,55,39,29.91,29.81,29.67,10,10,10,30,18,45,0.00,1,,197
2011-11-13,72,64,56,58,53,48,84,69,53,29.66,29.57,29.49,10,10,10,39,21,51,T,3,,203
2011-11-14,74,62,50,64,50,41,90,71,52,29.79,29.63,29.52,10,10,2,31,10,41,0.41,5,Rain-Thunderstorm,263
2011-11-15,59,51,42,54,49,39,100,86,71,29.88,29.81,29.76,10,9,5,21,9,26,0.00,4,,214
2011-11-16,51,43,35,34,21,14,71,54,36,30.24,30.11,29.92,10,10,10,25,14,32,0.00,1,,341
2011-11-17,44,37,30,18,15,11,58,42,25,30.33,30.29,30.24,10,10,10,22,10,29,0.00,1,,256
2011-11-18,53,42,31,23,19,16,59,43,26,30.27,30.12,29.97,10,10,10,31,18,39,0.00,1,,185
2011-11-19,60,53,45,54,42,24,80,59,38,30.01,29.90,29.81,10,10,10,33,19,41,0.00,7,,194
2011-11-20,60,49,38,54,38,32,82,74,66,30.26,30.17,29.99,10,10,7,23,12,30,T,6,,1
2011-11-21,47,44,41,45,41,36,93,85,76,30.25,30.19,30.11,10,7,2,16,10,18,0.00,8,,62
2011-11-22,45,43,41,45,43,39,100,95,89,30.09,29.92,29.77,10,4,2,23,13,29,0.91,8,Rain,25
2011-11-23,48,44,40,42,40,37,100,86,71,30.30,30.24,30.09,7,4,2,17,9,25,0.00,7,,274
2011-11-24,50,46,41,45,42,41,100,93,86,30.32,30.25,30.16,10,5,1,21,14,28,0.00,6,,199
2011-11-25,61,51,40,47,43,39,100,79,57,30.15,30.04,29.94,10,8,4,24,17,32,0.00,2,,191
2011-11-26,62,52,42,57,50,40,96,84,71,29.98,29.87,29.80,10,9,4,25,16,33,0.43,6,Rain,198
2011-11-27,42,39,35,40,35,32,93,86,79,30.14,30.04,29.88,10,9,2,21,14,26,0.18,8,Rain-Snow,334
2011-11-28,39,37,35,36,34,30,92,86,79,30.13,30.03,29.82,10,9,5,24,16,32,0.36,8,Rain,8
2011-11-29,42,36,30,36,32,23,100,82,64,30.06,29.91,29.78,10,9,5,30,19,39,0.37,7,Rain,343
2011-11-30,41,33,25,26,23,19,85,67,48,30.21,30.15,30.06,10,10,10,14,7,20,0.00,0,,262